Time;durP1;ratioP1;P1;durP2;ratioP2;P2;SDS_P1;SDS_P2;PMS_P1;PMS_P2;Temp;Humidity;BMP_temperature;BMP_pressure;BME280_temperature;BME280_humidity;BME280_pressure;Samples;Min_cycle;Max_cycle;Signal;HPM_P1;HPM_P2
2022/11/06 00:09:21;;;;;;;35.40;17.48;;;;;;;4.80;100.00;100818.09;20884778;28;20866;-71
2022/11/06 00:19:23;;;;;;;26.98;14.73;;;;;;;4.73;100.00;100825.75;20886088;28;20165;-71
2022/11/06 00:29:24;;;;;;;27.17;14.63;;;;;;;4.58;100.00;100831.59;20885543;28;20478;-71
2022/11/06 00:39:25;;;;;;;26.50;15.10;;;;;;;4.48;100.00;100816.75;20883572;28;20545;-70
2022/11/06 00:49:27;;;;;;;36.67;17.50;;;;;;;4.45;100.00;100803.72;20879057;28;20475;-71
2022/11/06 00:59:28;;;;;;;34.72;16.27;;;;;;;4.47;100.00;100804.63;20844283;28;1052167;-71
2022/11/06 01:09:29;;;;;;;33.05;16.77;;;;;;;4.40;100.00;100795.00;20886914;28;20045;-72
2022/11/06 01:19:31;;;;;;;28.05;16.20;;;;;;;4.24;100.00;100810.31;20887695;28;20107;-70
2022/11/06 01:29:32;;;;;;;33.97;17.83;;;;;;;4.19;100.00;100816.25;20900820;28;20052;-71
2022/11/06 01:39:34;;;;;;;34.60;16.25;;;;;;;4.10;100.00;100798.84;20894753;28;20045;-72
2022/11/06 01:49:35;;;;;;;30.52;15.68;;;;;;;4.14;100.00;100782.50;20895589;28;20110;-71
2022/11/06 01:59:36;;;;;;;29.92;16.17;;;;;;;4.16;100.00;100754.88;20897727;28;20472;-71
2022/11/06 02:09:38;;;;;;;29.90;16.10;;;;;;;4.14;100.00;100735.84;20897271;28;20501;-72
2022/11/06 02:19:39;;;;;;;33.60;16.70;;;;;;;4.37;100.00;100724.13;20897329;28;20597;-72
2022/11/06 02:29:41;;;;;;;38.10;18.25;;;;;;;4.59;100.00;100701.94;20896298;28;20080;-71
2022/11/06 02:39:43;;;;;;;48.35;21.40;;;;;;;4.59;100.00;100691.56;20893958;28;20098;-71
2022/11/06 02:49:44;;;;;;;80.43;20.40;;;;;;;4.55;100.00;100704.47;20894366;28;20076;-70
2022/11/06 02:59:45;;;;;;;36.83;16.77;;;;;;;4.32;100.00;100712.81;20893697;28;21803;-71
2022/11/06 03:09:47;;;;;;;31.02;15.50;;;;;;;4.25;100.00;100704.91;20883187;28;20052;-71
2022/11/06 03:19:48;;;;;;;29.20;15.02;;;;;;;4.14;100.00;100709.06;20891310;28;20072;-71
2022/11/06 03:29:49;;;;;;;29.33;14.43;;;;;;;4.18;100.00;100705.69;20890377;28;20528;-71
2022/11/06 03:39:51;;;;;;;32.17;15.10;;;;;;;4.25;100.00;100689.34;20889363;28;20559;-71
2022/11/06 03:49:52;;;;;;;29.35;15.00;;;;;;;4.42;100.00;100668.88;20888747;28;20049;-71
2022/11/06 03:59:54;;;;;;;29.10;15.70;;;;;;;4.46;100.00;100658.56;20888625;28;20045;-71
2022/11/06 04:21:20;;;;;;;24.83;13.02;;;;;;;4.18;100.00;100648.66;20888635;28;20044;-70
2022/11/06 04:30:36;;;;;;;27.00;12.57;;;;;;;3.86;100.00;100673.22;20888008;28;20464;-71
2022/11/06 04:40:38;;;;;;;24.90;13.07;;;;;;;3.91;100.00;100669.84;20887088;28;20454;-71
2022/11/06 04:50:39;;;;;;;23.90;12.43;;;;;;;3.96;100.00;100681.16;20886965;28;20106;-72
2022/11/06 05:00:41;;;;;;;23.70;13.18;;;;;;;4.14;100.00;100677.97;20897203;28;20045;-71
2022/11/06 05:10:42;;;;;;;22.42;12.93;;;;;;;4.00;100.00;100670.00;20902356;28;20037;-72
2022/11/06 05:20:44;;;;;;;24.48;11.90;;;;;;;3.98;100.00;100666.53;20901697;28;20045;-72
2022/11/06 05:30:45;;;;;;;20.75;10.50;;;;;;;3.79;100.00;100660.19;20900939;28;20386;-72
2022/11/06 05:40:46;;;;;;;21.80;10.48;;;;;;;3.74;100.00;100652.34;20899398;28;20489;-72
2022/11/06 05:50:48;;;;;;;17.88;8.88;;;;;;;3.60;100.00;100635.72;20899449;28;20053;-71
2022/11/06 06:00:49;;;;;;;20.20;10.43;;;;;;;3.68;100.00;100609.91;20897499;28;20098;-70
2022/11/06 06:10:50;;;;;;;21.40;11.00;;;;;;;3.74;100.00;100604.84;20897518;28;20044;-71
2022/11/06 06:20:52;;;;;;;27.23;11.85;;;;;;;3.95;100.00;100583.56;20896468;28;20077;-70
2022/11/06 06:30:53;;;;;;;32.33;13.88;;;;;;;4.04;100.00;100573.34;20895618;28;20107;-70
2022/11/06 06:41:01;;;;;;;30.13;15.18;;;;;;;4.21;100.00;100545.03;20887601;28;20111;-71
2022/11/06 06:51:03;;;;;;;31.15;15.70;;;;;;;4.36;100.00;100524.50;20893871;28;20049;-70
2022/11/06 07:01:05;;;;;;;16.77;7.93;;;;;;;4.24;100.00;100508.78;20891907;28;20056;-71
2022/11/06 07:11:06;;;;;;;14.35;7.60;;;;;;;3.93;100.00;100487.72;20892179;28;20049;-71
2022/11/06 07:21:08;;;;;;;13.50;6.82;;;;;;;3.85;100.00;100468.59;20887798;28;20857;-70
2022/11/06 07:31:11;;;;;;;15.88;7.55;;;;;;;3.88;100.00;100488.47;20890509;28;20413;-70
2022/11/06 07:41:13;;;;;;;21.13;11.27;;;;;;;3.99;100.00;100497.28;20879634;28;20045;-71
2022/11/06 07:51:14;;;;;;;17.02;7.47;;;;;;;4.05;100.00;100523.25;20878082;28;20472;-69
2022/11/06 08:01:16;;;;;;;14.98;6.57;;;;;;;4.21;100.00;100556.25;20870319;28;20053;-70
2022/11/06 08:11:19;;;;;;;31.65;11.20;;;;;;;4.09;100.00;100600.16;20889199;28;20064;-69
2022/11/06 08:21:20;;;;;;;28.23;10.57;;;;;;;4.26;100.00;100585.69;20888049;28;20543;-70
2022/11/06 08:31:21;;;;;;;20.83;11.45;;;;;;;4.38;100.00;100534.03;20849940;28;20095;-69
2022/11/06 08:41:23;;;;;;;22.48;13.50;;;;;;;4.76;100.00;100517.13;20869041;28;20045;-70
2022/11/06 08:51:24;;;;;;;21.05;12.13;;;;;;;4.84;100.00;100487.81;20868382;28;20045;-69
2022/11/06 09:01:26;;;;;;;25.73;14.05;;;;;;;5.18;100.00;100462.16;20867939;28;20564;-68
2022/11/06 09:11:27;;;;;;;23.85;13.48;;;;;;;5.16;100.00;100463.84;20865083;28;20472;-68
2022/11/06 09:21:29;;;;;;;23.85;13.93;;;;;;;5.45;100.00;100437.19;20891515;28;20139;-69
2022/11/06 09:31:30;;;;;;;20.65;12.07;;;;;;;5.74;100.00;100435.63;20891880;28;20333;-68
2022/11/06 09:41:32;;;;;;;22.25;13.55;;;;;;;6.08;100.00;100420.19;20894761;28;20056;-68
2022/11/06 09:51:33;;;;;;;19.02;10.93;;;;;;;6.78;100.00;100415.09;20898926;28;20064;-68
2022/11/06 10:01:35;;;;;;;17.58;10.40;;;;;;;7.12;100.00;100381.22;20897408;28;20099;-69
2022/11/06 10:11:37;;;;;;;15.25;8.88;;;;;;;6.97;100.00;100371.69;20896197;28;20063;-69
2022/11/06 10:21:38;;;;;;;18.23;10.00;;;;;;;7.20;100.00;100328.25;20896301;28;20053;-70
2022/11/06 10:31:39;;;;;;;11.82;6.50;;;;;;;7.10;100.00;100321.34;20894677;28;20037;-70
2022/11/06 10:41:41;;;;;;;14.85;8.38;;;;;;;7.62;100.00;100296.84;20893840;28;20049;-71
2022/11/06 10:51:42;;;;;;;13.63;7.35;;;;;;;7.79;100.00;100270.66;20892633;28;20053;-70
2022/11/06 11:01:44;;;;;;;11.27;6.55;;;;;;;8.07;100.00;100258.28;20891980;28;20049;-70
2022/11/06 11:11:45;;;;;;;10.43;6.10;;;;;;;7.93;100.00;100241.00;20892397;28;20053;-70
2022/11/06 11:21:47;;;;;;;10.88;5.50;;;;;;;7.81;100.00;100228.09;20890640;28;20099;-70
2022/11/06 11:31:48;;;;;;;9.75;5.68;;;;;;;8.15;100.00;100201.72;20890155;28;20102;-67
2022/11/06 11:41:49;;;;;;;13.07;6.47;;;;;;;8.38;100.00;100173.69;20888705;28;20165;-70
2022/11/06 11:51:51;;;;;;;9.45;4.75;;;;;;;8.53;100.00;100164.88;20889695;28;20046;-67
2022/11/06 12:01:52;;;;;;;11.63;5.35;;;;;;;8.75;100.00;100149.78;20888799;28;20102;-68
2022/11/06 12:11:54;;;;;;;8.18;4.88;;;;;;;8.99;100.00;100119.91;20888955;28;20066;-69
2022/11/06 12:21:55;;;;;;;8.98;5.03;;;;;;;9.05;100.00;100108.50;20870633;28;20563;-68
2022/11/06 12:31:56;;;;;;;9.00;4.65;;;;;;;9.14;100.00;100111.84;20885811;28;20118;-68
2022/11/06 12:41:58;;;;;;;6.78;4.13;;;;;;;9.14;100.00;100082.25;20885569;28;20163;-69
2022/11/06 12:51:59;;;;;;;7.68;4.25;;;;;;;9.24;100.00;100069.00;20886342;28;20394;-68
2022/11/06 13:02:00;;;;;;;7.43;4.50;;;;;;;9.33;100.00;100057.56;20885967;28;20049;-69
2022/11/06 13:12:02;;;;;;;11.35;4.22;;;;;;;9.34;100.00;100038.41;20886313;28;20498;-68
2022/11/06 13:22:03;;;;;;;7.95;3.72;;;;;;;9.11;100.00;100033.53;20896735;28;20048;-69
2022/11/06 13:32:05;;;;;;;6.38;4.30;;;;;;;9.17;100.00;100006.47;20900053;28;20076;-69
2022/11/06 13:42:06;;;;;;;8.75;5.00;;;;;;;9.19;100.00;99991.63;20900143;28;20076;-68
2022/11/06 13:52:08;;;;;;;10.23;5.10;;;;;;;9.19;100.00;99983.78;20899441;28;20075;-68
2022/11/06 14:02:09;;;;;;;13.85;6.85;;;;;;;9.23;100.00;100003.75;20897325;28;20175;-68
2022/11/06 14:12:11;;;;;;;13.40;8.13;;;;;;;9.27;100.00;99987.13;20896537;28;20049;-69
2022/11/06 14:22:15;;;;;;;11.73;7.43;;;;;;;9.39;100.00;99983.44;20896209;28;20086;-68
2022/11/06 14:32:17;;;;;;;13.38;7.28;;;;;;;9.17;100.00;99977.72;20885700;28;20713;-68
2022/11/06 14:42:18;;;;;;;13.77;8.35;;;;;;;8.95;100.00;99967.63;20893777;28;20053;-68
2022/11/06 14:52:26;;;;;;;17.73;8.95;;;;;;;8.82;100.00;99970.47;20893986;28;20402;-68
2022/11/06 15:02:28;;;;;;;15.52;8.35;;;;;;;8.64;100.00;99987.25;20892105;28;20483;-70
2022/11/06 15:12:29;;;;;;;16.00;9.43;;;;;;;8.54;100.00;99975.25;20891865;28;20425;-68
2022/11/06 15:22:31;;;;;;;16.33;9.57;;;;;;;8.44;100.00;100001.44;20881149;28;20087;-71
2022/11/06 15:32:32;;;;;;;16.00;8.75;;;;;;;8.28;100.00;99967.72;20888844;28;20121;-72
2022/11/06 15:42:33;;;;;;;16.58;9.18;;;;;;;8.19;100.00;99945.22;20889269;28;20107;-72
2022/11/06 15:52:35;;;;;;;16.15;9.57;;;;;;;8.16;100.00;99948.75;20889320;28;20080;-70
2022/11/06 16:02:36;;;;;;;13.88;8.77;;;;;;;8.13;100.00;99942.72;20887220;28;20049;-70
2022/11/06 16:12:38;;;;;;;12.32;8.48;;;;;;;8.06;100.00;99949.75;20888761;28;20603;-67
2022/11/06 16:22:39;;;;;;;15.52;8.85;;;;;;;8.02;100.00;99953.28;20887091;28;20081;-68
2022/11/06 16:32:40;;;;;;;15.77;9.50;;;;;;;7.92;100.00;99964.72;20886994;28;20061;-67
2022/11/06 16:42:43;;;;;;;13.95;9.18;;;;;;;7.92;100.00;99983.81;20886488;28;20070;-67
2022/11/06 16:52:45;;;;;;;15.73;10.25;;;;;;;7.92;100.00;99982.94;20890895;28;20044;-67
2022/11/06 17:02:46;;;;;;;14.68;9.23;;;;;;;7.90;100.00;99992.50;20893819;28;20083;-67
2022/11/06 17:12:48;;;;;;;22.30;12.38;;;;;;;7.95;100.00;99996.81;20891073;28;20136;-67
2022/11/06 17:22:49;;;;;;;17.92;11.38;;;;;;;7.92;100.00;99996.84;20896223;28;20547;-68
2022/11/06 17:32:51;;;;;;;21.88;13.88;;;;;;;7.85;100.00;99991.72;20895393;28;20075;-67
2022/11/06 17:42:52;;;;;;;20.33;13.18;;;;;;;7.74;100.00;100017.88;20894560;28;20405;-67
2022/11/06 17:52:53;;;;;;;21.77;14.63;;;;;;;7.82;100.00;100023.03;20895401;28;20106;-67
2022/11/06 18:02:55;;;;;;;25.08;15.63;;;;;;;7.88;100.00;100018.59;20893356;28;20052;-68
2022/11/06 18:13:01;;;;;;;22.33;15.30;;;;;;;7.93;100.00;100024.63;20893337;28;20489;-66
2022/11/06 18:23:03;;;;;;;21.15;13.45;;;;;;;7.96;100.00;100035.03;20891315;28;20044;-66
2022/11/06 18:33:04;;;;;;;22.33;14.10;;;;;;;8.02;100.00;100043.66;20890745;28;20099;-66
2022/11/06 18:43:06;;;;;;;19.88;13.30;;;;;;;8.01;100.00;100021.97;20890045;28;20079;-66
2022/11/06 18:53:07;;;;;;;18.10;12.85;;;;;;;8.02;100.00;100041.91;20890351;28;20048;-66
2022/11/06 19:03:10;;;;;;;17.55;11.75;;;;;;;8.06;100.00;100050.59;20871069;28;20056;-66
2022/11/06 19:13:12;;;;;;;18.52;12.70;;;;;;;8.05;100.00;100067.97;20879953;28;20045;-66
2022/11/06 19:23:13;;;;;;;18.38;12.38;;;;;;;8.06;100.00;100076.66;20887204;28;20391;-70
2022/11/06 19:33:15;;;;;;;18.73;12.68;;;;;;;8.14;100.00;100093.06;20874818;28;20080;-67
2022/11/06 19:43:16;;;;;;;19.38;11.75;;;;;;;8.14;100.00;100080.03;20878492;28;20502;-68
2022/11/06 19:53:18;;;;;;;17.63;11.65;;;;;;;8.17;100.00;100083.47;20877228;28;20118;-70
2022/11/06 20:03:19;;;;;;;19.52;10.32;;;;;;;8.25;100.00;100072.97;20879201;28;20087;-68
2022/11/06 20:13:21;;;;;;;18.92;12.05;;;;;;;8.27;100.00;100060.75;20877457;28;20072;-67
2022/11/06 20:23:22;;;;;;;16.25;8.90;;;;;;;8.32;100.00;100072.00;20882651;28;20487;-67
2022/11/06 20:33:23;;;;;;;11.98;6.53;;;;;;;8.38;100.00;100064.13;20898410;28;20041;-68
2022/11/06 20:43:25;;;;;;;15.30;7.20;;;;;;;8.52;100.00;100061.34;20891310;28;20107;-67
2022/11/06 20:53:26;;;;;;;8.48;4.90;;;;;;;8.79;100.00;100078.41;20892963;28;20059;-69
2022/11/06 21:03:27;;;;;;;8.30;4.75;;;;;;;8.70;100.00;100102.88;20893100;28;20092;-69
2022/11/06 21:13:29;;;;;;;11.57;6.68;;;;;;;8.60;100.00;100134.31;20895103;28;20056;-68
2022/11/06 21:23:30;;;;;;;11.82;6.25;;;;;;;8.50;100.00;100145.75;20897911;28;20052;-68
2022/11/06 21:33:31;;;;;;;12.38;6.93;;;;;;;8.45;100.00;100162.31;20897043;28;20114;-68
2022/11/06 21:43:33;;;;;;;11.00;7.00;;;;;;;8.45;100.00;100177.97;20878939;28;20167;-69
2022/11/06 22:03:54;;;;;;;8.90;5.90;;;;;;;8.54;100.00;100176.16;20895070;28;20095;-69
2022/11/06 22:13:56;;;;;;;8.13;4.85;;;;;;;8.67;100.00;100190.78;20891096;28;20049;-70
2022/11/06 22:23:57;;;;;;;7.55;4.22;;;;;;;8.82;100.00;100201.06;20894045;28;20205;-69
2022/11/06 22:33:59;;;;;;;7.32;3.88;;;;;;;8.81;100.00;100194.09;20892945;28;20090;-69
2022/11/06 22:44:00;;;;;;;7.35;3.97;;;;;;;8.80;100.00;100205.41;20892743;28;20106;-67
2022/11/06 22:54:02;;;;;;;8.02;4.57;;;;;;;8.82;100.00;100201.06;20890894;28;20493;-67
2022/11/06 23:04:03;;;;;;;8.52;3.75;;;;;;;8.86;100.00;100217.53;20890769;28;20052;-69
2022/11/06 23:14:05;;;;;;;8.73;4.35;;;;;;;8.86;100.00;100218.44;20892580;28;20099;-67
2022/11/06 23:24:09;;;;;;;7.65;3.83;;;;;;;8.89;100.00;100223.59;20888448;28;20045;-68
2022/11/06 23:34:11;;;;;;;9.45;4.40;;;;;;;8.90;100.00;100220.09;20890740;28;20052;-67
2022/11/06 23:54:32;;;;;;;7.90;4.65;;;;;;;8.94;100.00;100221.78;20890196;28;20706;-68
